CST,Max TemperatureF,Mean TemperatureF,Min TemperatureF,Max Dew PointF,MeanDew PointF,Min DewpointF,Max Humidity, Mean Humidity, Min Humidity, Max Sea Level PressureIn, Mean Sea Level PressureIn, Min Sea Level PressureIn, Max VisibilityMiles, Mean VisibilityMiles, Min VisibilityMiles, Max Wind SpeedMPH, Mean Wind SpeedMPH, Max Gust SpeedMPH,PrecipitationIn, CloudCover, Events, WindDirDegrees
2012-11-1,77,54,34,41,37,31,92,63,26,30.05,29.99,29.92,10,9,5,8,2,,0.00,0,,219
2012-11-2,82,63,44,51,46,38,79,55,34,29.94,29.87,29.77,10,10,8,13,5,22,0.00,0,,169
2012-11-3,64,51,36,42,35,32,86,59,35,30.22,30.11,29.90,10,10,6,13,8,17,0.00,0,,345
2012-11-4,66,49,32,41,35,30,92,66,34,30.25,30.16,30.06,10,10,9,6,1,,0.00,0,,162
2012-11-5,52,49,46,44,40,37,80,70,61,30.14,30.08,30.00,10,10,10,18,8,26,0.01,6,,333
2012-11-6,66,49,32,39,33,26,82,60,25,30.13,30.09,30.02,10,10,10,17,5,26,0.00,3,,310
2012-11-7,62,46,30,32,28,25,82,53,26,30.22,30.15,30.11,10,10,10,9,3,,0.00,0,,355
2012-11-8,72,58,44,43,37,32,63,49,31,30.11,29.99,29.87,10,10,10,21,7,32,0.00,0,,155
2012-11-9,75,66,57,58,54,43,75,63,54,29.90,29.85,29.78,10,10,10,20,13,32,0.00,1,,176
2012-11-10,75,70,64,57,55,52,73,59,46,29.90,29.80,29.71,10,10,10,23,17,38,0.00,1,,179
2012-11-11,70,49,27,58,40,23,93,83,61,30.31,29.92,29.66,10,7,2,31,14,56,1.05,6,Rain-Thunderstorm,317
2012-11-12,51,36,21,29,22,18,92,68,31,30.49,30.44,30.33,10,10,10,14,3,21,0.00,0,,259
2012-11-13,55,40,24,31,26,21,92,62,31,30.51,30.44,30.36,10,10,10,12,2,,0.00,0,,184
2012-11-14,57,42,26,30,26,22,88,59,30,30.44,30.37,30.29,10,10,10,10,2,16,0.00,0,,170
2012-11-15,60,46,32,34,30,26,92,61,33,30.40,30.33,30.27,10,10,10,10,2,,0.00,0,,176
2012-11-16,63,46,28,39,32,27,96,69,34,30.47,30.41,30.38,10,10,6,5,0,,0.00,0,,160
2012-11-17,61,46,30,34,28,20,89,54,21,30.42,30.35,30.29,10,10,10,15,3,22,0.00,0,,166
2012-11-18,63,48,34,35,32,27,75,50,34,30.31,30.23,30.16,10,10,10,16,5,25,0.00,2,,167
2012-11-19,68,57,45,48,44,42,93,70,49,30.19,30.14,30.09,10,10,6,13,6,20,0.17,2,Rain,188
2012-11-20,68,52,35,44,39,34,97,79,36,30.24,30.19,30.15,10,6,0,7,1,,0.00,1,Fog,330
2012-11-21,73,53,33,45,35,30,93,70,25,30.27,30.20,30.03,10,6,0,14,2,18,0.00,0,Fog,171
2012-11-22,73,64,51,52,45,37,60,52,42,30.27,30.00,29.89,10,10,10,18,11,30,0.00,2,,192
2012-11-23,48,36,23,36,23,17,86,59,35,30.53,30.46,30.28,10,10,10,18,8,26,0.00,0,,335
2012-11-24,51,35,19,25,20,16,89,58,32,30.46,30.24,29.99,10,10,10,13,4,21,0.00,0,,178
2012-11-25,61,46,30,31,27,23,76,51,30,29.98,29.94,29.88,10,10,10,8,4,,0.00,0,,152
2012-11-26,46,38,28,31,27,22,82,66,40,30.47,30.19,29.96,10,10,8,15,8,26,0.00,2,,25
2012-11-27,44,32,19,22,20,15,89,69,40,30.52,30.42,30.34,10,9,6,8,3,,0.00,0,,6
2012-11-28,55,37,19,32,27,17,89,64,37,30.44,30.34,30.21,10,10,7,12,3,,0.00,0,,164
2012-11-29,66,54,43,39,35,31,65,52,32,30.19,30.09,29.99,10,10,10,17,9,25,0.00,0,,180
2012-11-30,64,50,36,52,42,30,93,78,56,30.12,30.05,30.01,10,6,0,10,3,16,0.00,3,Fog,184